Davie, FL (33331)

3:30 PM EDT on September 19, 2014 (GMT -0400)
Southwest Ranches, FL | Change Station
CLOSE
Current Station
Personal Weather Station
Location: SW Ranches, FL
Elevation: 20 ft
Nearby Weather Stations

Elev 20 ft 26.04 °N, 80.40 °W | Updated 7 minutes ago

Overcast
Overcast
79.6 °F
Feels Like 80 °F
N
0.0
Wind Variable Wind from SE
Gusts 0.0 mph

Today
High -- | Low -- °F
--% Chance of Precip.
Yesterday
High -- | Low -- °F
Precip. -- in
7:08 AM 7:21 PM
Waning Crescent, 17% visible
Pressure 29.94 in
Visibility 10.0 miles
Clouds Few 12000 ft
Heat Index 80 °F
Dew Point 57 °F
Humidity 46%
Rainfall 0.07 in
Snow Depth Not available.
UV 10 out of 12
Pollen 2.00 out of 12
Air Quality Not available.
Flu Activity Not available.
METAR KOPF 191853Z 06005KT 10SM VCTS FEW120 26/23 A2993 RMK AO2 RAE20 SLP136 P0000 T02560228

More Conditions Fewer Conditions

Pressure 29.94 in
Visibility 10.0 miles
Clouds Few 12000 ft
Heat Index 80 °F
Dew Point 57 °F
Humidity 46%
Rainfall 0.07 in
Snow Depth Not available.
UV 10 out of 12
Pollen 2.00 out of 12
Air Quality Not available.
Flu Activity Not available.
METAR KOPF 191853Z 06005KT 10SM VCTS FEW120 26/23 A2993 RMK AO2 RAE20 SLP136 P0000 T02560228

More Conditions Fewer Conditions

10-Day Weather Forecast

Almanac

Astronomy

Sep. 19, 2014 Rise Set
Actual Time 7:08 AM EDT 7:21 PM EDT
Civil Twilight 6:45 AM EDT 7:44 PM EDT
Nautical Twilight 6:18 AM EDT 8:11 PM EDT
Astronomical Twilight 5:51 AM EDT 8:38 PM EDT
Moon 3:12 AM EDT 4:31 PM EDT
Length of Visible Light 12h 58m
Length of Day
12h 12m
Tomorrow will be 1m 31s shorter.
Waning Crescent, 17% of the Moon is Illuminated
Today
Waning Crescent
Sep 24
New
Oct 1
First Quarter
Oct 8
Full
Oct 15
Last Quarter

Today's Extremes

State Highs State Lows

Community

WunderPhotos

Upload Photos

1,754,687 photos uploaded!

WunderBlogs® & News

Nearby

Air Quality

  Air Quality AQ Index Pollutant
Yesterday Good
OZONE
Friday Good
OZONE
Friday Good
PM2.5
Saturday Good
OZONE
Saturday Good
PM2.5
Sunday Good
OZONE
Sunday Good
PM2.5

Snow Depth

Station Depth Elevation
No new snow has been reported.

Earthquake Activity

City Distance Mag. Time & Date
No recent earthquake activity has been reported nearby.
Minimum magnitude displayed is 2.5.

Coastal Water Temperatures

Place Temperature
Virginia Key, FL 84.9 °F

Nearby Weather Stations